createdAt,value
2019-04-03T00:00:15.380Z,18.4
2019-04-03T00:01:08.581Z,18.4
2019-04-03T00:01:55.855Z,18.4
2019-04-03T00:02:44.596Z,18.4
2019-04-03T00:03:38.679Z,18.4
2019-04-03T00:04:24.946Z,18.4
2019-04-03T00:05:15.299Z,18.4
2019-04-03T00:06:08.772Z,18.4
2019-04-03T00:06:55.027Z,18.4
2019-04-03T00:07:46.402Z,18.4
2019-04-03T00:08:50.527Z,18.4
2019-04-03T00:09:25.048Z,18.4
2019-04-03T00:10:16.033Z,18.4
2019-04-03T00:11:10.692Z,18.4
2019-04-03T00:11:55.803Z,18.4
2019-04-03T00:12:50.354Z,18.4
2019-04-03T00:13:36.864Z,18.4
2019-04-03T00:14:26.615Z,18.4
2019-04-03T00:15:19.405Z,18.4
2019-04-03T00:16:06.630Z,18.4
2019-04-03T00:16:57.303Z,18.4
2019-04-03T00:17:49.980Z,18.4
2019-04-03T00:18:36.577Z,18.4
2019-04-03T00:19:26.615Z,18.4
2019-04-03T00:20:18.923Z,18.4
2019-04-03T00:21:07.154Z,18.4
2019-04-03T00:21:59.684Z,18.4
2019-04-03T00:22:54.645Z,18.4
2019-04-03T00:23:37.215Z,18.4
2019-04-03T00:24:30.649Z,18.4
2019-04-03T00:25:16.748Z,18.4
2019-04-03T00:26:07.455Z,18.4
2019-04-03T00:27:00.806Z,18.4
2019-04-03T00:27:47.211Z,18.4
2019-04-03T00:28:37.686Z,18.4
2019-04-03T00:29:30.594Z,18.4
2019-04-03T00:30:18.024Z,18.4
2019-04-03T00:31:08.633Z,18.4
2019-04-03T00:32:01.383Z,18.3
2019-04-03T00:32:47.971Z,18.4
2019-04-03T00:33:37.666Z,18.4
2019-04-03T00:34:30.813Z,18.3
2019-04-03T00:35:17.892Z,18.3
2019-04-03T00:36:08.700Z,18.3
2019-04-03T00:37:01.418Z,18.3
2019-04-03T00:37:48.325Z,18.3
2019-04-03T00:38:38.341Z,18.4
2019-04-03T00:39:30.935Z,18.4
2019-04-03T00:40:18.770Z,18.4
2019-04-03T00:41:08.894Z,18.4
2019-04-03T00:42:01.116Z,18.3
2019-04-03T00:42:48.768Z,18.4
2019-04-03T00:43:39.054Z,18.3
2019-04-03T00:44:31.601Z,18.4
2019-04-03T00:45:18.853Z,18.3
2019-04-03T00:46:08.601Z,18.3
2019-04-03T00:47:02.473Z,18.3
2019-04-03T00:47:48.416Z,18.3
2019-04-03T00:48:39.659Z,18.3
2019-04-03T00:49:32.605Z,18.3
2019-04-03T00:50:19.243Z,18.3
2019-04-03T00:51:10.330Z,18.3
2019-04-03T00:52:01.791Z,18.3
2019-04-03T00:52:50.223Z,18.3
2019-04-03T00:53:39.065Z,18.3
2019-04-03T00:54:36.411Z,18.3
2019-04-03T00:55:20.245Z,18.3
2019-04-03T00:56:10.159Z,18.3
2019-04-03T00:57:02.735Z,18.3
2019-04-03T00:57:50.805Z,18.3
2019-04-03T00:58:39.987Z,18.3
2019-04-03T00:59:33.402Z,18.3
2019-04-03T01:00:19.241Z,18.3
2019-04-03T01:01:10.257Z,18.3
2019-04-03T01:02:02.585Z,18.3
2019-04-03T01:02:49.884Z,18.3
2019-04-03T01:03:40.182Z,18.3
2019-04-03T01:04:33.445Z,18.3
2019-04-03T01:05:21.058Z,18.3
2019-04-03T01:06:10.389Z,18.3
2019-04-03T01:07:03.464Z,18.3
2019-04-03T01:07:51.504Z,18.3
2019-04-03T01:08:40.394Z,18.3
2019-04-03T01:09:33.967Z,18.3
2019-04-03T01:10:20.442Z,18.3
2019-04-03T01:11:10.559Z,18.3
2019-04-03T01:12:03.609Z,18.3
2019-04-03T01:12:51.039Z,18.3
2019-04-03T01:13:41.368Z,18.3
2019-04-03T01:14:34.699Z,18.3
2019-04-03T01:15:21.389Z,18.3
2019-04-03T01:16:11.949Z,18.3
2019-04-03T01:17:05.209Z,18.3
2019-04-03T01:17:51.366Z,18.3
2019-04-03T01:18:43.486Z,18.3
2019-04-03T01:19:31.832Z,18.3
2019-04-03T01:20:20.541Z,18.3
2019-04-03T01:21:14.171Z,18.3
2019-04-03T01:22:00.787Z,18.3
2019-04-03T01:22:51.043Z,18.3
2019-04-03T01:23:44.719Z,18.3
2019-04-03T01:24:31.933Z,18.3
2019-04-03T01:25:20.951Z,18.3
2019-04-03T01:26:15.673Z,18.3
2019-04-03T01:27:02.328Z,18.3
2019-04-03T01:27:52.553Z,18.3
2019-04-03T01:28:45.711Z,18.3
2019-04-03T01:29:31.634Z,18.3
2019-04-03T01:30:23.253Z,18.3
2019-04-03T01:31:15.138Z,18.3
2019-04-03T01:32:01.987Z,18.3
2019-04-03T01:32:55.610Z,18.3
2019-04-03T01:33:42.803Z,18.3
2019-04-03T01:34:32.402Z,18.3
2019-04-03T01:35:25.924Z,18.3
2019-04-03T01:36:12.750Z,18.3
2019-04-03T01:37:02.409Z,18.3
2019-04-03T01:37:55.304Z,18.3
2019-04-03T01:38:43.809Z,18.3
2019-04-03T01:39:31.936Z,18.3
2019-04-03T01:40:26.093Z,18.3
2019-04-03T01:41:13.225Z,18.2
2019-04-03T01:42:02.908Z,18.2
2019-04-03T01:42:56.450Z,18.2
2019-04-03T01:43:42.247Z,18.2
2019-04-03T01:44:34.500Z,18.3
2019-04-03T01:45:26.300Z,18.2
2019-04-03T01:46:13.586Z,18.2
2019-04-03T01:47:06.005Z,18.3
2019-04-03T01:47:52.462Z,18.3
2019-04-03T01:48:43.488Z,18.3
2019-04-03T01:49:36.724Z,18.3
2019-04-03T01:50:23.455Z,18.3
2019-04-03T01:51:12.876Z,18.3
2019-04-03T01:52:07.429Z,18.3
2019-04-03T01:52:53.270Z,18.2
2019-04-03T01:53:43.544Z,18.2
2019-04-03T01:54:37.377Z,18.2
2019-04-03T01:55:23.537Z,18.3
2019-04-03T01:56:14.338Z,18.2
2019-04-03T01:57:07.822Z,18.2
2019-04-03T01:57:53.877Z,18.2
2019-04-03T01:58:44.476Z,18.2
2019-04-03T01:59:35.806Z,18.2
2019-04-03T02:00:23.581Z,18.2
2019-04-03T02:01:17.023Z,18.2
2019-04-03T02:02:04.239Z,18.2
2019-04-03T02:02:54.698Z,18.2
2019-04-03T02:03:47.125Z,18.2
2019-04-03T02:04:34.614Z,18.2
2019-04-03T02:05:23.985Z,18.3
2019-04-03T02:06:17.947Z,18.2
2019-04-03T02:07:03.883Z,18.2
2019-04-03T02:07:54.836Z,18.2
2019-04-03T02:08:47.750Z,18.3
2019-04-03T02:09:34.052Z,18.2
2019-04-03T02:10:26.799Z,18.2
2019-04-03T02:11:14.341Z,18.2
2019-04-03T02:12:05.816Z,18.2
2019-04-03T02:12:58.784Z,18.2
2019-04-03T02:13:45.271Z,18.2
2019-04-03T02:14:35.417Z,18.2
2019-04-03T02:15:28.889Z,18.2
2019-04-03T02:16:15.323Z,18.2
2019-04-03T02:17:05.807Z,18.2
2019-04-03T02:17:58.588Z,18.2
2019-04-03T02:18:46.431Z,18.2
2019-04-03T02:19:36.326Z,18.2
2019-04-03T02:20:29.716Z,18.1
2019-04-03T02:21:15.834Z,18.2
2019-04-03T02:22:07.013Z,18.1
2019-04-03T02:22:55.751Z,18.1
2019-04-03T02:23:46.181Z,18.2
2019-04-03T02:24:39.166Z,18.1
2019-04-03T02:25:25.630Z,18.1
2019-04-03T02:26:16.449Z,18.1
2019-04-03T02:27:08.601Z,18.1
2019-04-03T02:27:55.714Z,18.1
2019-04-03T02:28:45.163Z,18.1
2019-04-03T02:29:35.435Z,18.1
2019-04-03T02:30:26.673Z,18.1
2019-04-03T02:31:22.684Z,18.2
2019-04-03T02:32:06.731Z,18.2
2019-04-03T02:33:02.679Z,18.1
2019-04-03T02:33:46.796Z,18.1
2019-04-03T02:34:42.681Z,18.1
2019-04-03T02:35:26.845Z,18.1
2019-04-03T02:36:22.066Z,18.1
2019-04-03T02:37:06.990Z,18.1
2019-04-03T02:37:59.245Z,18.1
2019-04-03T02:38:47.564Z,18.1
2019-04-03T02:39:36.812Z,18.2
2019-04-03T02:40:31.182Z,18.1
2019-04-03T02:41:16.697Z,18.2
2019-04-03T02:42:13.678Z,18.2
2019-04-03T02:42:57.788Z,18.1
2019-04-03T02:43:53.900Z,18.1
2019-04-03T02:44:38.135Z,18.1
2019-04-03T02:45:33.243Z,18.1
2019-04-03T02:46:18.609Z,18.1
2019-04-03T02:47:10.452Z,18.1
2019-04-03T02:47:59.080Z,18.1
2019-04-03T02:48:47.167Z,18.1
2019-04-03T02:49:37.409Z,18.1
2019-04-03T02:50:29.268Z,18.1
2019-04-03T02:51:22.733Z,18.1
2019-04-03T02:52:08.907Z,18.1
2019-04-03T02:53:04.933Z,18.1
2019-04-03T02:53:49.585Z,18.1
2019-04-03T02:54:44.241Z,18.1
2019-04-03T02:55:28.522Z,18.1
2019-04-03T02:56:22.772Z,18.1
2019-04-03T02:57:08.762Z,18.1
2019-04-03T02:58:15.374Z,18.1
2019-04-03T02:58:49.250Z,18.1
2019-04-03T02:59:38.981Z,18.1
2019-04-03T03:00:35.648Z,18.1
2019-04-03T03:01:20.100Z,18.1
2019-04-03T03:02:14.705Z,18.1
2019-04-03T03:02:58.798Z,18.1
2019-04-03T03:03:54.206Z,18.1
2019-04-03T03:07:20.036Z,18.1
2019-04-03T03:08:14.634Z,18.1
2019-04-03T03:09:00.448Z,18.1
2019-04-03T03:09:56.537Z,18.1
2019-04-03T03:10:39.912Z,18.1
2019-04-03T03:11:34.441Z,18.1
2019-04-03T03:12:19.592Z,18.1
2019-04-03T03:13:12.111Z,18.1
2019-04-03T03:14:00.638Z,18.1
2019-04-03T03:14:50.323Z,18.1
2019-04-03T03:15:46.953Z,18.1
2019-04-03T03:16:29.869Z,18.1
2019-04-03T03:17:25.204Z,18.1
2019-04-03T03:18:10.908Z,18.1
2019-04-03T03:19:05.798Z,18.1
2019-04-03T03:19:50.860Z,18.1
2019-04-03T03:20:46.317Z,18.1
2019-04-03T03:21:30.218Z,18.1
2019-04-03T03:22:26.626Z,18.1
2019-04-03T03:23:09.488Z,18.1
2019-04-03T03:24:06.448Z,18.1
2019-04-03T03:24:51.213Z,18.1
2019-04-03T03:25:42.383Z,18.1
2019-04-03T03:26:30.767Z,18.1
2019-04-03T03:27:21.150Z,18.1
2019-04-03T03:28:16.255Z,18.1
2019-04-03T03:29:29.364Z,18.1
2019-04-03T03:29:51.745Z,18.1
2019-04-03T03:31:58.608Z,18.1
2019-04-03T03:33:41.676Z,18.1
2019-04-03T03:34:11.635Z,18.1
2019-04-03T03:36:00.128Z,18.1
2019-04-03T03:36:38.633Z,18.1
2019-04-03T03:37:18.809Z,18.1
2019-04-03T03:37:54.528Z,18.1
2019-04-03T03:38:51.081Z,18.1
2019-04-03T03:39:36.029Z,18.1
2019-04-03T03:40:25.614Z,18.1
2019-04-03T03:41:15.557Z,18.1
2019-04-03T03:42:08.481Z,18.1
2019-04-03T03:42:56.598Z,18.1
2019-04-03T03:43:49.005Z,18.1
2019-04-03T03:44:37.525Z,18.1
2019-04-03T03:45:30.987Z,18.1
2019-04-03T03:46:16.581Z,18.1
2019-04-03T03:47:10.961Z,18.1
2019-04-03T03:47:56.384Z,18.1
2019-04-03T03:48:54.968Z,18.1
2019-04-03T03:49:36.883Z,18.1
2019-04-03T03:50:34.174Z,18.1
2019-04-03T03:51:16.451Z,18.1
2019-04-03T03:52:13.203Z,18.1
2019-04-03T03:52:56.730Z,18.1
2019-04-03T03:53:54.159Z,18.1
2019-04-03T03:54:36.312Z,18.1
2019-04-03T03:55:32.695Z,18.1
2019-04-03T03:56:17.370Z,18.1
2019-04-03T03:57:13.132Z,18.1
2019-04-03T03:57:56.298Z,18.1
2019-04-03T03:58:52.232Z,18.1
2019-04-03T03:59:36.805Z,18.1
2019-04-03T04:00:32.092Z,18.1
2019-04-03T04:01:16.921Z,18.1
2019-04-03T04:02:14.369Z,18.1
2019-04-03T04:02:57.623Z,18.1
2019-04-03T04:03:52.039Z,18.1
2019-04-03T04:04:38.504Z,18
2019-04-03T04:05:33.095Z,18
2019-04-03T04:06:17.401Z,18.1
2019-04-03T04:07:13.188Z,18.1
2019-04-03T04:07:58.396Z,18
2019-04-03T04:08:53.677Z,18.1
2019-04-03T04:09:38.833Z,18
2019-04-03T04:10:39.342Z,18
2019-04-03T04:11:18.756Z,18.1
2019-04-03T04:12:13.702Z,18
2019-04-03T04:12:57.760Z,18
2019-04-03T04:13:54.454Z,18
2019-04-03T04:14:39.166Z,18.1
2019-04-03T04:15:33.989Z,18.1
2019-04-03T04:16:18.435Z,18
2019-04-03T04:17:22.628Z,18
2019-04-03T04:18:00.902Z,18.1
2019-04-03T04:18:48.897Z,18.1
2019-04-03T04:19:41.704Z,18
2019-04-03T04:20:28.825Z,18.1
2019-04-03T04:21:20.707Z,18
2019-04-03T04:22:09.866Z,18
2019-04-03T04:23:01.890Z,18.1
2019-04-03T04:23:48.889Z,18
2019-04-03T04:24:38.672Z,18
2019-04-03T04:25:33.041Z,18
2019-04-03T04:26:17.555Z,18.1
2019-04-03T04:27:11.894Z,18
2019-04-03T04:27:59.622Z,18
2019-04-03T04:28:49.612Z,18
2019-04-03T04:29:37.941Z,18
2019-04-03T04:30:28.746Z,18
2019-04-03T04:31:20.481Z,18
2019-04-03T04:32:09.423Z,18
2019-04-03T04:32:59.386Z,18
2019-04-03T04:33:52.301Z,18
2019-04-03T04:34:39.849Z,18
2019-04-03T04:35:31.293Z,18
2019-04-03T04:36:19.277Z,18
2019-04-03T04:37:11.557Z,18
2019-04-03T04:38:03.275Z,18
2019-04-03T04:38:48.589Z,18
2019-04-03T04:39:39.352Z,18
2019-04-03T04:40:32.662Z,18
2019-04-03T04:41:19.416Z,18
2019-04-03T04:42:13.783Z,18
2019-04-03T04:42:59.330Z,18
2019-04-03T04:43:50.831Z,18
2019-04-03T04:44:42.517Z,18
2019-04-03T04:45:32.834Z,18
2019-04-03T04:46:23.017Z,18
2019-04-03T04:47:10.374Z,18
2019-04-03T04:48:00.247Z,18
2019-04-03T04:48:52.395Z,18
2019-04-03T04:49:39.991Z,18
2019-04-03T04:50:33.652Z,18
2019-04-03T04:51:20.013Z,18
2019-04-03T04:52:10.620Z,18
2019-04-03T04:53:03.982Z,18
2019-04-03T04:53:49.718Z,18
2019-04-03T04:54:39.499Z,18.1
2019-04-03T04:55:37.532Z,18
2019-04-03T04:56:20.327Z,18
2019-04-03T04:57:13.024Z,18
2019-04-03T04:57:59.821Z,18
2019-04-03T04:58:52.546Z,18
2019-04-03T04:59:47.709Z,18
2019-04-03T05:00:33.356Z,18
2019-04-03T05:01:23.899Z,18
2019-04-03T05:02:11.546Z,18
2019-04-03T05:03:04.338Z,18
2019-04-03T05:03:54.639Z,18
2019-04-03T05:04:40.412Z,17.9
2019-04-03T05:05:37.569Z,18
2019-04-03T05:06:22.370Z,18
2019-04-03T05:07:12.434Z,18
2019-04-03T05:08:04.637Z,18.1
2019-04-03T05:08:51.482Z,18.2
2019-04-03T05:09:44.576Z,18.3
2019-04-03T05:10:31.289Z,18.3
2019-04-03T05:11:20.789Z,18.3
2019-04-03T05:12:15.751Z,18.2
2019-04-03T05:13:01.584Z,18.2
2019-04-03T05:13:54.631Z,18.1
2019-04-03T05:14:41.679Z,18.1
2019-04-03T05:15:33.251Z,18.1
2019-04-03T05:16:29.068Z,18.1
2019-04-03T05:17:11.504Z,18.1
2019-04-03T05:18:05.268Z,18.1
2019-04-03T05:18:51.693Z,18.1
2019-04-03T05:19:42.751Z,18.1
2019-04-03T05:20:33.574Z,18.1
2019-04-03T05:21:25.879Z,18.1
2019-04-03T05:22:12.608Z,18.1
2019-04-03T05:23:04.314Z,18.1
2019-04-03T05:23:52.094Z,18.1
2019-04-03T05:24:43.058Z,18.1
2019-04-03T05:25:36.198Z,18.1
2019-04-03T05:26:26.314Z,18.1
2019-04-03T05:27:16.341Z,18.1
2019-04-03T05:28:04.845Z,18.1
2019-04-03T05:29:07.910Z,18.1
2019-04-03T05:29:43.163Z,18
2019-04-03T05:30:32.527Z,18.1
2019-04-03T05:31:24.005Z,18.1
2019-04-03T05:32:17.780Z,18.1
2019-04-03T05:33:03.935Z,18
2019-04-03T05:33:52.670Z,18
2019-04-03T05:34:46.935Z,18
2019-04-03T05:35:33.754Z,18
2019-04-03T05:36:27.056Z,18
2019-04-03T05:37:22.377Z,18.1
2019-04-03T05:38:02.765Z,18.1
2019-04-03T05:38:58.234Z,18.1
2019-04-03T05:39:43.385Z,18
2019-04-03T05:40:34.592Z,18.1
2019-04-03T05:41:27.381Z,18.1
2019-04-03T05:42:13.998Z,18
2019-04-03T05:43:07.079Z,18
2019-04-03T05:43:53.657Z,18
2019-04-03T05:44:43.546Z,18
2019-04-03T05:45:36.785Z,18.1
2019-04-03T05:46:27.888Z,18.1
2019-04-03T05:47:16.519Z,18.1
2019-04-03T05:48:05.122Z,18
2019-04-03T05:48:57.162Z,18.1
2019-04-03T05:49:50.535Z,18
2019-04-03T05:50:39.797Z,18
2019-04-03T05:51:23.737Z,18
2019-04-03T05:52:13.836Z,18
2019-04-03T05:53:08.015Z,18.1
2019-04-03T05:53:57.349Z,18.1
2019-04-03T05:54:51.412Z,18
2019-04-03T05:55:34.939Z,18
2019-04-03T05:56:24.310Z,18.1
2019-04-03T05:57:17.400Z,18.1
2019-04-03T05:59:06.385Z,18.1
2019-04-03T05:59:17.613Z,18
2019-04-03T06:00:14.629Z,18.1
2019-04-03T06:01:17.543Z,18.1
2019-04-03T06:01:54.486Z,18
2019-04-03T06:02:37.835Z,18
2019-04-03T06:05:25.436Z,18
2019-04-03T06:06:09.171Z,17.9
2019-04-03T06:06:58.890Z,18
2019-04-03T06:07:52.777Z,17.9
2019-04-03T06:08:44.685Z,18
2019-04-03T06:09:32.483Z,18
2019-04-03T06:10:19.339Z,18
2019-04-03T06:11:17.553Z,18
2019-04-03T06:12:00.502Z,18
2019-04-03T06:12:54.302Z,18
2019-04-03T06:13:40.877Z,18
2019-04-03T06:14:32.223Z,18
2019-04-03T06:15:24.596Z,18
2019-04-03T06:16:11.612Z,18
2019-04-03T06:17:04.462Z,18
2019-04-03T06:17:57.978Z,18
2019-04-03T06:18:41.340Z,18
2019-04-03T06:19:30.402Z,18
2019-04-03T06:20:21.132Z,18.1
2019-04-03T06:21:10.982Z,18.1
2019-04-03T06:22:00.144Z,18.1
2019-04-03T06:22:55.280Z,18.1
2019-04-03T06:23:41.258Z,18.2
2019-04-03T06:24:34.270Z,18.2
2019-04-03T06:25:24.046Z,18.2
2019-04-03T06:26:11.978Z,18.2
2019-04-03T06:27:00.977Z,18.2
2019-04-03T06:27:52.799Z,18.2
2019-04-03T06:28:48.503Z,18.1
2019-04-03T06:29:31.362Z,18.1
2019-04-03T06:30:20.987Z,18.1
2019-04-03T06:31:14.279Z,18.1
2019-04-03T06:32:07.605Z,18.1
2019-04-03T06:32:55.472Z,18.1
2019-04-03T06:33:44.386Z,18.1
2019-04-03T06:34:32.094Z,18
2019-04-03T06:35:23.220Z,18
2019-04-03T06:36:12.275Z,18.1
2019-04-03T06:37:02.527Z,18
2019-04-03T06:37:55.846Z,18
2019-04-03T06:38:41.241Z,18
2019-04-03T06:39:41.008Z,18
2019-04-03T06:40:22.658Z,18
2019-04-03T06:41:16.168Z,18
2019-04-03T06:42:02.781Z,18
2019-04-03T06:42:53.571Z,18
2019-04-03T06:43:43.074Z,18
2019-04-03T06:44:32.611Z,18
2019-04-03T06:45:27.622Z,18
2019-04-03T06:46:13.653Z,18
2019-04-03T06:47:08.546Z,18
2019-04-03T06:47:52.799Z,17.9
2019-04-03T06:48:45.071Z,17.9
2019-04-03T06:49:33.354Z,18
2019-04-03T06:50:26.874Z,18
2019-04-03T06:51:12.561Z,17.9
2019-04-03T06:52:03.310Z,17.9
2019-04-03T06:52:55.729Z,18
2019-04-03T06:53:43.082Z,18
2019-04-03T06:54:36.773Z,18
2019-04-03T06:55:27.356Z,18
2019-04-03T06:56:16.313Z,18
2019-04-03T06:57:03.648Z,18
2019-04-03T06:57:53.696Z,18
2019-04-03T06:58:52.720Z,18
2019-04-03T06:59:33.158Z,18
2019-04-03T07:00:23.499Z,18
2019-04-03T07:01:12.775Z,18
2019-04-03T07:02:03.762Z,18
2019-04-03T07:02:53.630Z,18
2019-04-03T07:05:19.886Z,17.9
2019-04-03T07:06:09.506Z,18
2019-04-03T07:07:03.240Z,18
2019-04-03T07:07:49.022Z,17.9
2019-04-03T07:08:48.142Z,17.9
2019-04-03T07:09:44.897Z,17.9
2019-04-03T07:10:34.482Z,17.9
2019-04-03T07:11:08.917Z,17.9
2019-04-03T07:12:01.943Z,17.9
2019-04-03T07:12:52.759Z,17.9
2019-04-03T07:13:40.466Z,17.9
2019-04-03T07:14:33.797Z,17.9
2019-04-03T07:15:21.004Z,17.9
2019-04-03T07:16:10.734Z,17.9
2019-04-03T07:17:08.737Z,17.9
2019-04-03T07:17:50.353Z,17.9
2019-04-03T07:18:43.982Z,17.9
2019-04-03T07:19:31.037Z,17.9
2019-04-03T07:20:29.141Z,17.9
2019-04-03T07:21:10.581Z,17.9
2019-04-03T07:22:04.325Z,17.9
2019-04-03T07:22:51.521Z,18.1
2019-04-03T07:23:41.206Z,18.1
2019-04-03T07:24:33.499Z,18.2
2019-04-03T07:25:21.871Z,18.3
2019-04-03T07:26:14.083Z,18.3
2019-04-03T07:27:01.049Z,18.3
2019-04-03T07:27:51.371Z,18.4
2019-04-03T07:28:45.686Z,18.4
2019-04-03T07:29:34.973Z,18.4
2019-04-03T07:30:28.760Z,18.4
2019-04-03T07:31:11.865Z,18.5
2019-04-03T07:32:04.505Z,18.5
2019-04-03T07:32:51.713Z,18.5
2019-04-03T07:33:42.939Z,18.6
2019-04-03T07:34:35.701Z,18.6
2019-04-03T07:35:21.770Z,18.5
2019-04-03T07:36:16.134Z,18.6
2019-04-03T07:37:00.965Z,18.6
2019-04-03T07:37:56.295Z,18.6
2019-04-03T07:38:42.153Z,18.6
2019-04-03T07:39:31.575Z,18.6
2019-04-03T07:40:25.392Z,18.6
2019-04-03T07:41:12.488Z,18.6
2019-04-03T07:42:03.222Z,18.6
2019-04-03T07:42:52.263Z,18.6
2019-04-03T07:43:42.519Z,18.6
2019-04-03T07:44:36.885Z,18.6
2019-04-03T07:45:21.873Z,18.6
2019-04-03T07:46:12.710Z,18.6
2019-04-03T07:52:56.847Z,18.8
2019-04-03T07:53:42.969Z,18.8
2019-04-03T07:54:35.715Z,18.8
2019-04-03T07:55:29.302Z,18.8
2019-04-03T07:56:13.340Z,18.8
2019-04-03T07:57:05.902Z,18.8
2019-04-03T07:57:52.989Z,18.8
2019-04-03T07:58:43.847Z,18.8
2019-04-03T07:59:37.585Z,18.8
2019-04-03T08:00:24.402Z,18.8
2019-04-03T08:01:21.878Z,18.8
2019-04-03T08:02:03.834Z,18.8
2019-04-03T08:02:58.482Z,18.8
2019-04-03T08:03:44.495Z,18.8
2019-04-03T08:05:46.542Z,18.8
2019-04-03T08:06:07.302Z,18.8
2019-04-03T08:06:47.725Z,18.8
2019-04-03T08:07:38.283Z,18.8
2019-04-03T08:08:29.834Z,18.8
2019-04-03T08:09:19.695Z,18.8
2019-04-03T08:10:09.495Z,18.8
2019-04-03T08:11:03.539Z,18.8
2019-04-03T08:11:48.767Z,18.8
2019-04-03T08:12:44.383Z,18.8
2019-04-03T08:13:30.006Z,18.8
2019-04-03T08:14:23.054Z,18.8
2019-04-03T08:15:12.456Z,18.8
2019-04-03T08:16:00.284Z,18.9
2019-04-03T08:16:59.511Z,18.9
2019-04-03T08:17:39.661Z,18.9
2019-04-03T08:18:31.556Z,18.8
2019-04-03T08:19:24.290Z,18.9
2019-04-03T08:20:10.551Z,18.9
2019-04-03T08:21:08.248Z,18.9
2019-04-03T08:21:50.761Z,18.9
2019-04-03T08:22:44.121Z,18.9
2019-04-03T08:23:30.441Z,18.9
2019-04-03T08:24:20.513Z,18.9
2019-04-03T08:25:15.718Z,18.9
2019-04-03T08:26:03.514Z,18.9
2019-04-03T08:26:54.756Z,18.9
2019-04-03T08:27:40.723Z,18.9
2019-04-03T08:28:38.713Z,18.9
2019-04-03T08:29:21.534Z,18.9
2019-04-03T08:30:15.656Z,18.9
2019-04-03T08:31:00.915Z,18.9
2019-04-03T08:31:57.036Z,18.9
2019-04-03T08:32:42.555Z,18.9
2019-04-03T08:33:39.264Z,18.9
2019-04-03T08:34:26.725Z,19
2019-04-03T08:35:32.777Z,19
2019-04-03T08:36:02.707Z,19
2019-04-03T08:36:51.923Z,19
2019-04-03T08:37:47.282Z,19
2019-04-03T08:38:32.414Z,19
2019-04-03T08:39:26.752Z,19
2019-04-03T08:40:11.792Z,19.1
2019-04-03T08:41:07.087Z,19.1
2019-04-03T08:41:52.065Z,19.1
2019-04-03T08:42:42.386Z,19.1
2019-04-03T08:43:36.070Z,19.1
2019-04-03T08:44:20.960Z,19
2019-04-03T08:45:16.388Z,19.1
2019-04-03T08:46:01.820Z,19.1
2019-04-03T08:46:53.487Z,19.1
2019-04-03T08:47:49.712Z,19.1
2019-04-03T08:48:31.807Z,19.1
2019-04-03T08:49:21.822Z,19.1
2019-04-03T08:50:12.697Z,19.1
2019-04-03T08:51:09.354Z,19.1
2019-04-03T08:51:52.872Z,19.1
2019-04-03T08:52:47.691Z,19.1
2019-04-03T08:53:33.041Z,19.1
2019-04-03T08:54:23.234Z,19.1
2019-04-03T08:55:17.158Z,19.1
2019-04-03T08:56:04.994Z,19.1
2019-04-03T08:56:56.638Z,19.1
2019-04-03T08:57:47.376Z,19.1
2019-04-03T08:58:36.334Z,19.1
2019-04-03T08:59:23.786Z,19.1
2019-04-03T09:00:14.096Z,19.1
2019-04-03T09:01:09.862Z,19.1
2019-04-03T09:01:57.714Z,19.1
2019-04-03T09:02:47.926Z,19.1
2019-04-03T09:03:32.378Z,19.1
2019-04-03T09:04:27.076Z,19.1
2019-04-03T09:05:22.873Z,19.1
2019-04-03T09:06:05.429Z,19.1
2019-04-03T09:06:57.044Z,19.1
2019-04-03T09:07:44.596Z,19.1
2019-04-03T09:08:35.818Z,19.1
2019-04-03T09:09:22.314Z,19.1
2019-04-03T09:10:14.081Z,19.1
2019-04-03T09:11:07.673Z,19.1
2019-04-03T09:11:53.464Z,19.1
2019-04-03T09:12:47.046Z,19.1
2019-04-03T09:13:33.940Z,19.1
2019-04-03T09:14:30.443Z,19.1
2019-04-03T09:15:14.218Z,19.1
2019-04-03T09:16:11.218Z,19.1
2019-04-03T09:16:54.578Z,19.2
2019-04-03T09:17:44.896Z,19.2
2019-04-03T09:18:41.444Z,19.2
2019-04-03T09:19:25.558Z,19.1
2019-04-03T09:20:18.378Z,19.2
2019-04-03T09:21:04.992Z,19.2
2019-04-03T09:21:59.701Z,19.2
2019-04-03T09:22:44.612Z,19.2
2019-04-03T09:23:34.106Z,19.2
2019-04-03T09:24:28.573Z,19.2
2019-04-03T09:25:18.048Z,19.2
2019-04-03T09:26:08.090Z,19.3
2019-04-03T09:26:54.239Z,19.2
2019-04-03T09:27:48.242Z,19.3
2019-04-03T09:28:34.579Z,19.2
2019-04-03T09:29:23.492Z,19.3
2019-04-03T09:30:18.905Z,19.3
2019-04-03T09:31:05.037Z,19.3
2019-04-03T09:32:02.722Z,19.3
2019-04-03T09:32:46.472Z,19.3
2019-04-03T09:33:38.504Z,19.3
2019-04-03T09:34:36.295Z,19.3
2019-04-03T09:35:16.145Z,19.3
2019-04-03T09:36:12.882Z,19.3
2019-04-03T09:36:55.812Z,19.3
2019-04-03T09:37:51.017Z,19.3
2019-04-03T09:38:44.302Z,19.3
2019-04-03T09:39:25.807Z,19.3
2019-04-03T09:40:20.837Z,19.3
2019-04-03T09:41:06.201Z,19.3
2019-04-03T09:41:57.811Z,19.3
2019-04-03T09:42:44.642Z,19.3
2019-04-03T09:43:40.123Z,19.3
2019-04-03T09:44:29.510Z,19.3
2019-04-03T09:45:15.604Z,19.3
2019-04-03T09:46:09.418Z,19.3
2019-04-03T09:46:56.263Z,19.3
2019-04-03T09:47:46.294Z,19.2
2019-04-03T09:48:39.744Z,19.3
2019-04-03T09:49:27.779Z,19.3
2019-04-03T09:50:24.281Z,19.3
2019-04-03T09:51:10.639Z,19.3
2019-04-03T09:52:01.886Z,19.2
2019-04-03T09:53:06.208Z,19.3
2019-04-03T09:53:37.043Z,19.3
2019-04-03T09:54:31.818Z,19.2
2019-04-03T09:55:16.919Z,19.3
2019-04-03T09:56:12.079Z,19.3
2019-04-03T09:57:13.958Z,19.3
2019-04-03T09:57:48.233Z,19.3
2019-04-03T09:58:41.248Z,19.3
2019-04-03T09:59:28.080Z,19.3
2019-04-03T10:00:20.572Z,19.3
2019-04-03T10:01:06.588Z,19.3
2019-04-03T10:01:58.001Z,19.3
2019-04-03T10:02:51.946Z,19.3
2019-04-03T10:03:40.850Z,19.3
2019-04-03T10:06:37.780Z,19.3
2019-04-03T10:07:12.868Z,19.3
2019-04-03T10:08:00.913Z,19.3
2019-04-03T10:08:50.279Z,19.3
2019-04-03T10:09:48.857Z,19.3
2019-04-03T10:10:32.752Z,19.3
2019-04-03T10:11:42.920Z,19.3
2019-04-03T10:12:10.561Z,19.3
2019-04-03T10:13:03.098Z,19.3
2019-04-03T10:14:41.293Z,19.3
2019-04-03T10:15:34.593Z,19.3
2019-04-03T10:16:24.135Z,19.3
2019-04-03T10:17:16.478Z,19.3
2019-04-03T10:18:00.322Z,19.3
2019-04-03T10:18:52.557Z,19.3
2019-04-03T10:19:40.787Z,19.3
2019-04-03T10:20:30.852Z,19.3
2019-04-03T10:21:40.063Z,19.3
2019-04-03T10:22:11.485Z,19.4
2019-04-03T10:23:04.304Z,19.4
2019-04-03T10:23:49.867Z,19.4
2019-04-03T10:24:41.854Z,19.4
2019-04-03T10:25:31.629Z,19.4
2019-04-03T10:26:21.260Z,19.4
2019-04-03T10:27:14.988Z,19.4
2019-04-03T10:28:01.541Z,19.4
2019-04-03T10:28:56.990Z,19.4
2019-04-03T10:29:58.827Z,19.4
2019-04-03T10:30:32.299Z,19.4
2019-04-03T10:31:25.324Z,19.4
2019-04-03T10:32:11.816Z,19.4
2019-04-03T10:33:06.611Z,19.4
2019-04-03T10:33:51.897Z,19.4
2019-04-03T10:34:45.124Z,19.4
2019-04-03T10:35:50.603Z,19.4
2019-04-03T10:36:36.483Z,19.4
2019-04-03T10:37:16.596Z,19.4
2019-04-03T10:38:03.172Z,19.4
2019-04-03T10:39:07.398Z,19.4
2019-04-03T10:39:53.999Z,19.4
2019-04-03T10:40:34.213Z,19.4
2019-04-03T10:41:22.576Z,19.4
2019-04-03T10:42:13.518Z,19.4
2019-04-03T10:43:12.151Z,19.4
2019-04-03T10:43:53.315Z,19.4
2019-04-03T10:44:42.516Z,19.4
2019-04-03T10:45:32.572Z,19.4
2019-04-03T10:46:26.885Z,19.4
2019-04-03T10:47:13.273Z,19.4
2019-04-03T10:48:05.783Z,19.4
2019-04-03T10:48:52.803Z,19.4
2019-04-03T10:49:43.766Z,19.4
2019-04-03T10:50:36.338Z,19.4
2019-04-03T10:51:24.041Z,19.4
2019-04-03T10:52:17.196Z,19.4
2019-04-03T10:53:02.797Z,19.4
2019-04-03T10:53:58.628Z,19.4
2019-04-03T10:54:45.915Z,19.4
2019-04-03T10:55:37.398Z,19.4
2019-04-03T10:56:23.555Z,19.4
2019-04-03T10:57:14.047Z,19.4
2019-04-03T10:58:13.559Z,19.4
2019-04-03T10:59:19.561Z,19.4
2019-04-03T10:59:44.265Z,19.5
2019-04-03T11:00:37.532Z,19.4
2019-04-03T11:01:23.380Z,19.5
2019-04-03T11:02:13.556Z,19.5
2019-04-03T11:03:03.065Z,19.5
2019-04-03T11:03:53.525Z,19.5
2019-04-03T11:04:42.048Z,19.5
2019-04-03T11:05:34.737Z,19.5
2019-04-03T11:06:24.615Z,19.5
2019-04-03T11:07:12.810Z,19.5
2019-04-03T11:08:18.549Z,19.4
2019-04-03T11:08:54.311Z,19.5
2019-04-03T11:09:43.867Z,19.5
2019-04-03T11:10:34.744Z,19.5
2019-04-03T11:11:24.182Z,19.5
2019-04-03T11:13:08.189Z,19.5
2019-04-03T11:13:54.328Z,19.5
2019-04-03T11:14:48.210Z,19.5
2019-04-03T11:15:35.334Z,19.5
2019-04-03T11:16:24.622Z,19.5
2019-04-03T11:17:32.277Z,19.5
2019-04-03T11:18:05.934Z,19.5
2019-04-03T11:19:29.606Z,19.6
2019-04-03T11:19:50.599Z,19.6
2019-04-03T11:20:42.478Z,19.6
2019-04-03T11:21:39.858Z,19.6
2019-04-03T11:24:45.989Z,19.6
2019-04-03T11:24:59.094Z,19.6
2019-04-03T11:25:56.963Z,19.6
2019-04-03T11:26:40.370Z,19.6
2019-04-03T11:27:55.461Z,19.6
2019-04-03T11:28:20.689Z,19.6
2019-04-03T11:29:14.405Z,19.6
2019-04-03T11:30:23.962Z,19.6
2019-04-03T11:30:55.797Z,19.6
2019-04-03T11:31:51.568Z,19.6
2019-04-03T11:32:32.161Z,19.6
2019-04-03T11:33:22.906Z,19.6
2019-04-03T11:34:09.568Z,19.6